Time;durP1;ratioP1;P1;durP2;ratioP2;P2;SDS_P1;SDS_P2;PMS_P1;PMS_P2;Temp;Humidity;BMP_temperature;BMP_pressure;BME280_temperature;BME280_humidity;BME280_pressure;Samples;Min_cycle;Max_cycle;Signal;HPM_P1;HPM_P2
2023/01/19 00:00:46;;;;;;;;;;;;;;;12.92;75.10;98834.13;4981780;28;19918;-88
2023/01/19 00:03:21;;;;;;;;;;;;;;;12.93;73.59;98837.63;4978469;28;19922;-85
2023/01/19 00:05:56;;;;;;;;;;;;;;;12.67;74.86;98826.28;4989760;28;19922;-84
2023/01/19 00:08:33;;;;;;;;;;;;;;;12.79;74.44;98820.53;4981944;28;19918;-88
2023/01/19 00:11:05;;;;;;;;;;;;;;;13.08;71.50;98829.97;4985975;28;19918;-88
2023/01/19 00:13:34;;;;;;;;;;;;;;;13.22;71.51;98839.16;4990670;28;20794;-87
2023/01/19 00:16:20;;;;;;;;;;;;;;;12.82;73.41;98851.28;4978991;28;19918;-89
2023/01/19 00:18:56;;;;;;;;;;;;;;;12.51;76.21;98860.34;4971660;28;19953;-88
2023/01/19 00:21:23;;;;;;;;;;;;;;;12.72;75.04;98858.72;4988592;28;19925;-89
2023/01/19 00:23:51;;;;;;;;;;;;;;;12.71;74.63;98865.78;4990741;28;20509;-89
2023/01/19 00:26:24;;;;;;;;;;;;;;;12.87;74.29;98868.72;4990788;28;19925;-88
2023/01/19 00:28:54;;;;;;;;;;;;;;;12.43;74.94;98876.50;4990953;28;19925;-88
2023/01/19 00:31:28;;;;;;;;;;;;;;;12.18;77.83;98871.22;4990500;28;19918;-87
2023/01/19 00:33:59;;;;;;;;;;;;;;;12.12;79.33;98877.56;4989183;28;19953;-90
2023/01/19 00:36:34;;;;;;;;;;;;;;;12.17;79.56;98882.69;4990397;28;20697;-90
2023/01/19 00:39:15;;;;;;;;;;;;;;;12.22;80.17;98870.19;4995151;28;19921;-88
2023/01/19 00:44:32;;;;;;;;;;;;;;;12.63;77.42;98893.44;4995040;28;19972;-89
2023/01/19 00:47:04;;;;;;;;;;;;;;;12.37;76.25;98911.09;4994567;28;19964;-88
2023/01/19 00:49:39;;;;;;;;;;;;;;;12.30;76.63;98894.56;4994161;28;19918;-87
2023/01/19 00:52:22;;;;;;;;;;;;;;;11.96;78.13;98911.59;4994870;28;19925;-88
2023/01/19 00:54:50;;;;;;;;;;;;;;;12.01;78.20;98919.38;4994136;28;19936;-88
2023/01/19 00:57:22;;;;;;;;;;;;;;;11.91;79.07;98904.69;4992689;28;19921;-88
2023/01/19 00:59:56;;;;;;;;;;;;;;;12.12;78.47;98888.13;4992877;28;20315;-89
2023/01/19 01:02:28;;;;;;;;;;;;;;;12.00;78.70;98902.66;4991723;28;20033;-88
2023/01/19 01:05:01;;;;;;;;;;;;;;;12.19;78.42;98902.03;4994553;28;19921;-88
2023/01/19 01:07:49;;;;;;;;;;;;;;;;;;;;;
2023/01/19 01:10:20;;;;;;;;;;;;;;;12.24;78.02;98893.94;4994858;28;20318;-88
2023/01/19 01:12:50;;;;;;;;;;;;;;;12.20;77.92;98908.16;4994422;28;19918;-89
2023/01/19 01:15:20;;;;;;;;;;;;;;;11.21;81.29;98895.44;4993873;28;19918;-90
2023/01/19 01:17:56;;;;;;;;;;;;;;;11.33;81.97;98889.78;4993593;28;20024;-90
2023/01/19 01:20:29;;;;;;;;;;;;;;;11.57;80.64;98898.72;4994543;28;19924;-89
2023/01/19 01:22:56;;;;;;;;;;;;;;;11.62;80.25;98903.88;4994044;28;19949;-89
2023/01/19 01:25:37;;;;;;;;;;;;;;;11.24;81.57;98898.84;4993752;28;19995;-88
2023/01/19 01:28:22;;;;;;;;;;;;;;;11.29;82.04;98893.44;4993487;28;19926;-93
2023/01/19 01:31:04;;;;;;;;;;;;;;;11.31;82.82;98894.25;4991983;28;19972;-89
2023/01/19 01:33:32;;;;;;;;;;;;;;;11.53;80.87;98891.81;4993151;28;19976;-88
2023/01/19 01:36:04;;;;;;;;;;;;;;;11.61;79.61;98886.28;4993099;28;19922;-89
2023/01/19 01:38:32;;;;;;;;;;;;;;;11.62;79.38;98893.31;4993368;28;19929;-88
2023/01/19 01:41:03;;;;;;;;;;;;;;;11.71;78.62;98881.56;4993693;28;20415;-88
2023/01/19 01:44:00;;;;;;;;;;;;;;;;;;;;;
2023/01/19 01:46:32;;;;;;;;;;;;;;;11.49;78.83;98891.94;4993224;28;19922;-88
2023/01/19 01:49:07;;;;;;;;;;;;;;;11.92;76.52;98895.84;4992529;28;19952;-88
2023/01/19 01:51:45;;;;;;;;;;;;;;;12.27;74.44;98891.19;4993031;28;19977;-87
2023/01/19 01:54:26;;;;;;;;;;;;;;;12.56;70.25;98899.84;4993447;28;19965;-88
2023/01/19 01:57:13;;;;;;;;;;;;;;;12.88;68.81;98898.69;4993603;28;19918;-88
2023/01/19 01:59:46;;;;;;;;;;;;;;;13.00;68.00;98894.72;4993843;28;19924;-87
2023/01/19 02:02:55;;;;;;;;;;;;;;;13.01;67.60;98892.03;4992578;28;20442;-88
2023/01/19 02:05:32;;;;;;;;;;;;;;;12.94;67.17;98908.19;4992824;28;19968;-89
2023/01/19 02:13:37;;;;;;;;;;;;;;;12.98;67.75;98893.94;4993096;28;20318;-88
2023/01/19 02:16:07;;;;;;;;;;;;;;;13.08;66.86;98897.94;4992628;28;19930;-89
2023/01/19 02:18:38;;;;;;;;;;;;;;;12.52;70.20;98907.06;4992748;28;19933;-88
2023/01/19 02:21:25;;;;;;;;;;;;;;;12.80;70.07;98908.69;4992673;28;19945;-87
2023/01/19 02:24:01;;;;;;;;;;;;;;;12.67;69.86;98916.22;4993204;28;19929;-88
2023/01/19 02:26:32;;;;;;;;;;;;;;;12.34;71.24;98919.13;4992649;28;20388;-89
2023/01/19 02:29:06;;;;;;;;;;;;;;;12.35;71.90;98894.41;4992750;28;19917;-89
2023/01/19 02:31:43;;;;;;;;;;;;;;;12.43;71.26;98899.44;4991554;28;20343;-88
2023/01/19 02:34:14;;;;;;;;;;;;;;;11.64;73.88;98913.44;4993020;28;19972;-89
2023/01/19 02:37:05;;;;;;;;;;;;;;;;;;;;;
2023/01/19 02:39:54;;;;;;;;;;;;;;;12.02;73.71;98905.25;4992674;28;19918;-88
2023/01/19 02:42:34;;;;;;;;;;;;;;;11.38;76.23;98926.63;4992199;28;19921;-88
2023/01/19 02:45:05;;;;;;;;;;;;;;;11.27;78.95;98911.94;4992314;28;19928;-88
2023/01/19 02:47:41;;;;;;;;;;;;;;;11.74;77.29;98916.69;4991920;28;19918;-87
2023/01/19 02:50:30;;;;;;;;;;;;;;;11.59;77.08;98907.47;4991983;28;19929;-88
2023/01/19 02:53:07;;;;;;;;;;;;;;;11.27;78.86;98919.03;4992308;28;20319;-88
2023/01/19 02:55:47;;;;;;;;;;;;;;;10.98;80.03;98935.72;4991825;28;19948;-89
2023/01/19 02:58:30;;;;;;;;;;;;;;;11.09;80.95;98928.34;4992321;28;19924;-87
2023/01/19 03:01:09;;;;;;;;;;;;;;;10.93;82.89;98914.72;4991083;28;19944;-91
2023/01/19 03:03:47;;;;;;;;;;;;;;;11.32;80.71;98918.88;4991918;28;19925;-88
2023/01/19 03:06:27;;;;;;;;;;;;;;;11.50;78.45;98917.47;4991807;28;19948;-88
2023/01/19 03:09:10;;;;;;;;;;;;;;;11.46;78.55;98912.28;4991462;28;19959;-87
2023/01/19 03:11:55;;;;;;;;;;;;;;;11.58;78.15;98902.22;4992340;28;20383;-88
2023/01/19 03:14:27;;;;;;;;;;;;;;;11.86;76.93;98918.03;4992147;28;19918;-89
2023/01/19 03:17:16;;;;;;;;;;;;;;;;;;;;;
2023/01/19 03:19:52;;;;;;;;;;;;;;;11.64;75.45;98920.53;4991714;28;19920;-89
2023/01/19 03:22:26;;;;;;;;;;;;;;;11.67;76.23;98923.06;4990789;28;19922;-89
2023/01/19 03:24:58;;;;;;;;;;;;;;;11.83;75.32;98926.06;4991256;28;19925;-88
2023/01/19 03:27:33;;;;;;;;;;;;;;;11.74;74.48;98923.72;4991288;28;19960;-88
2023/01/19 03:30:08;;;;;;;;;;;;;;;11.41;74.82;98939.72;4991660;28;20008;-89
2023/01/19 03:32:51;;;;;;;;;;;;;;;10.88;78.06;98927.22;4991764;28;20472;-89
2023/01/19 03:35:29;;;;;;;;;;;;;;;11.18;78.50;98929.84;4990146;28;19917;-89
2023/01/19 03:38:07;;;;;;;;;;;;;;;10.79;79.36;98928.31;4992771;28;19918;-88
2023/01/19 03:40:44;;;;;;;;;;;;;;;11.08;78.63;98924.84;4991787;28;19971;-88
2023/01/19 03:43:16;;;;;;;;;;;;;;;11.29;77.60;98938.31;4991588;28;19968;-90
2023/01/19 03:45:45;;;;;;;;;;;;;;;11.01;78.26;98933.84;5006367;28;20354;-88
2023/01/19 03:48:13;;;;;;;;;;;;;;;10.98;78.63;98933.06;4991614;28;19918;-88
2023/01/19 03:50:46;;;;;;;;;;;;;;;11.03;78.54;98954.91;4991595;28;19937;-89
2023/01/19 03:53:22;;;;;;;;;;;;;;;11.09;78.18;98952.09;4991050;28;20028;-88
2023/01/19 03:55:57;;;;;;;;;;;;;;;10.95;77.31;98938.44;4991710;28;19924;-88
2023/01/19 03:58:23;;;;;;;;;;;;;;;10.81;78.65;98915.94;4991728;28;19924;-88
2023/01/19 04:00:53;;;;;;;;;;;;;;;10.77;79.67;98945.97;4990627;28;19917;-91
2023/01/19 04:03:25;;;;;;;;;;;;;;;10.63;78.58;98948.09;4990789;28;19976;-89
2023/01/19 04:06:02;;;;;;;;;;;;;;;10.93;77.64;98946.41;4990936;28;19949;-89
2023/01/19 04:08:36;;;;;;;;;;;;;;;11.01;78.09;98949.69;4990406;28;20013;-88
2023/01/19 04:11:07;;;;;;;;;;;;;;;10.51;79.45;98936.13;4990008;28;19925;-89
2023/01/19 04:13:49;;;;;;;;;;;;;;;10.37;80.62;98963.72;4989789;28;19968;-88
2023/01/19 04:16:20;;;;;;;;;;;;;;;10.56;79.23;98956.19;4988937;28;19960;-86
2023/01/19 04:19:00;;;;;;;;;;;;;;;10.34;80.64;98944.50;4987522;28;20684;-86
2023/01/19 04:21:27;;;;;;;;;;;;;;;10.59;79.40;98951.75;4987048;28;19933;-86
2023/01/19 04:23:58;;;;;;;;;;;;;;;10.43;78.80;98944.25;4990040;28;19933;-87
2023/01/19 04:26:40;;;;;;;;;;;;;;;10.47;78.58;98940.63;4990157;28;19988;-87
2023/01/19 04:29:21;;;;;;;;;;;;;;;10.25;78.86;98952.59;4990665;28;19934;-87
2023/01/19 04:31:50;;;;;;;;;;;;;;;10.32;80.12;98935.72;4991486;28;20384;-87
2023/01/19 04:34:34;;;;;;;;;;;;;;;10.08;81.92;98931.94;4991175;28;19924;-87
2023/01/19 04:37:06;;;;;;;;;;;;;;;9.91;82.13;98946.38;4985000;28;20281;-86
2023/01/19 04:39:40;;;;;;;;;;;;;;;9.90;83.99;98936.78;4974882;28;19926;-90
2023/01/19 04:42:18;;;;;;;;;;;;;;;10.36;81.67;98950.56;4999108;28;19932;-90
2023/01/19 04:44:49;;;;;;;;;;;;;;;10.24;81.64;98946.47;5007558;28;19902;-88
2023/01/19 04:47:28;;;;;;;;;;;;;;;10.20;81.15;98963.25;4995597;28;20413;-91
2023/01/19 04:49:58;;;;;;;;;;;;;;;10.43;80.00;98964.50;4987562;28;19925;-91
2023/01/19 04:52:39;;;;;;;;;;;;;;;10.11;80.18;98952.94;4988329;28;19928;-91
2023/01/19 04:55:06;;;;;;;;;;;;;;;10.33;78.94;98969.09;4979570;28;19981;-91
2023/01/19 04:57:36;;;;;;;;;;;;;;;10.25;78.15;98952.59;4984717;28;20292;-92
2023/01/19 05:00:15;;;;;;;;;;;;;;;10.23;77.88;98963.19;4982784;28;20004;-88
2023/01/19 05:02:44;;;;;;;;;;;;;;;9.90;79.44;98971.03;4970450;28;19922;-93
2023/01/19 05:05:23;;;;;;;;;;;;;;;9.97;79.19;98966.47;4969213;28;20425;-89
2023/01/19 05:08:11;;;;;;;;;;;;;;;10.11;78.78;98961.72;4971511;28;19921;-96
2023/01/19 05:11:07;;;;;;;;;;;;;;;;;;;;;
2023/01/19 05:13:41;;;;;;;;;;;;;;;10.14;77.95;98963.41;4989258;28;19924;-91
2023/01/19 05:16:10;;;;;;;;;;;;;;;10.35;77.21;98959.41;4982155;28;19924;-89
2023/01/19 05:18:59;;;;;;;;;;;;;;;9.98;78.32;98965.56;4971630;28;19918;-96
2023/01/19 05:21:31;;;;;;;;;;;;;;;9.84;77.45;98976.44;4982226;28;19926;-96
2023/01/19 05:26:57;;;;;;;;;;;;;;;9.60;79.45;98968.19;4997016;28;19929;-96
2023/01/19 05:29:26;;;;;;;;;;;;;;;9.45;79.11;98972.03;4976392;28;19926;-91
2023/01/19 05:31:59;;;;;;;;;;;;;;;9.07;80.66;98957.91;4991210;28;19922;-92
2023/01/19 05:34:50;;;;;;;;;;;;;;;9.43;79.88;98960.66;4992683;28;19953;-92
2023/01/19 05:37:22;;;;;;;;;;;;;;;9.30;79.71;98962.69;4976139;28;20020;-92
2023/01/19 05:39:55;;;;;;;;;;;;;;;9.49;79.14;98967.56;4990860;28;19921;-92
2023/01/19 05:42:22;;;;;;;;;;;;;;;9.13;78.83;98977.97;4975722;28;19929;-94
2023/01/19 05:44:49;;;;;;;;;;;;;;;8.71;80.71;98978.81;4996693;28;19980;-94
2023/01/19 05:47:17;;;;;;;;;;;;;;;8.84;81.16;98983.81;4988859;28;19984;-93
2023/01/19 05:49:44;;;;;;;;;;;;;;;8.76;82.81;98981.34;4981371;28;20331;-91
2023/01/19 05:52:12;;;;;;;;;;;;;;;8.71;83.67;98994.56;4993254;28;19922;-87
2023/01/19 05:54:39;;;;;;;;;;;;;;;8.39;86.25;98998.59;4990432;28;19944;-90
2023/01/19 05:57:05;;;;;;;;;;;;;;;8.35;89.12;99002.16;4984605;28;19922;-89
2023/01/19 05:59:32;;;;;;;;;;;;;;;8.71;86.86;99010.34;4990415;28;19918;-90
2023/01/19 06:01:58;;;;;;;;;;;;;;;8.95;86.45;99002.88;4988566;28;19957;-89
2023/01/19 06:04:33;;;;;;;;;;;;;;;9.25;84.90;98995.25;4988602;28;19925;-93
2023/01/19 06:07:02;;;;;;;;;;;;;;;8.77;84.84;99012.88;4971803;28;20388;-91
2023/01/19 06:09:36;;;;;;;;;;;;;;;8.95;85.15;99013.41;4983320;28;19926;-88
2023/01/19 06:12:04;;;;;;;;;;;;;;;9.15;85.09;99010.38;4982793;28;20641;-92
2023/01/19 06:14:48;;;;;;;;;;;;;;;;;;;;;
2023/01/19 06:17:24;;;;;;;;;;;;;;;9.00;84.50;98995.75;4979572;28;19924;-91
2023/01/19 06:20:08;;;;;;;;;;;;;;;9.36;83.75;98998.56;4980341;28;19984;-91
2023/01/19 06:22:40;;;;;;;;;;;;;;;9.14;84.44;99004.25;4969806;28;19922;-91
2023/01/19 06:25:22;;;;;;;;;;;;;;;9.45;82.48;99010.63;4993688;28;19937;-92
2023/01/19 06:27:54;;;;;;;;;;;;;;;9.50;81.53;99001.75;4972096;28;19918;-91
2023/01/19 06:30:34;;;;;;;;;;;;;;;;;;;;;
2023/01/19 06:33:11;;;;;;;;;;;;;;;9.19;82.33;99009.44;4990035;28;20387;-91
2023/01/19 06:35:48;;;;;;;;;;;;;;;9.57;81.80;99009.50;4982644;28;19980;-91
2023/01/19 06:38:36;;;;;;;;;;;;;;;9.63;81.72;99033.09;4970264;28;19922;-91
2023/01/19 06:41:03;;;;;;;;;;;;;;;9.77;80.48;99022.25;4973760;28;19921;-91
2023/01/19 06:43:41;;;;;;;;;;;;;;;;;;;;;
2023/01/19 06:46:17;;;;;;;;;;;;;;;9.73;80.55;99034.63;4975019;28;19922;-91
2023/01/19 06:48:47;;;;;;;;;;;;;;;9.75;81.16;99038.09;4987459;28;19953;-91
2023/01/19 06:51:27;;;;;;;;;;;;;;;9.77;81.18;99036.28;4979124;28;19929;-91
2023/01/19 06:53:59;;;;;;;;;;;;;;;10.14;79.68;99030.16;4971732;28;20013;-91
2023/01/19 06:56:31;;;;;;;;;;;;;;;10.34;79.79;99029.72;4978857;28;19946;-91
2023/01/19 06:59:08;;;;;;;;;;;;;;;10.45;79.14;99028.59;4970869;28;20423;-91
2023/01/19 07:01:43;;;;;;;;;;;;;;;10.47;79.12;99030.28;4978255;28;20404;-91
2023/01/19 07:04:14;;;;;;;;;;;;;;;10.93;77.89;99031.69;4971867;28;19922;-91
2023/01/19 07:06:46;;;;;;;;;;;;;;;10.97;77.17;99028.97;4978686;28;19923;-90
2023/01/19 07:09:19;;;;;;;;;;;;;;;11.16;77.14;99027.56;4972485;28;19981;-91
2023/01/19 07:12:00;;;;;;;;;;;;;;;11.50;76.14;99026.59;4978597;28;20396;-91
2023/01/19 07:14:32;;;;;;;;;;;;;;;11.51;75.74;99025.69;4971629;28;19989;-90
2023/01/19 07:17:06;;;;;;;;;;;;;;;11.45;75.41;99031.16;4988897;28;20696;-90
2023/01/19 07:19:49;;;;;;;;;;;;;;;11.54;74.64;99030.00;4982440;28;20718;-90
2023/01/19 07:22:22;;;;;;;;;;;;;;;11.68;74.85;99045.44;4969458;28;19922;-90
2023/01/19 07:25:03;;;;;;;;;;;;;;;11.64;74.33;99029.69;4969672;28;19918;-90
2023/01/19 07:27:32;;;;;;;;;;;;;;;11.54;74.60;99035.28;4971444;28;20005;-89
2023/01/19 07:30:17;;;;;;;;;;;;;;;11.34;76.32;99022.66;4969000;28;19922;-90
2023/01/19 07:32:46;;;;;;;;;;;;;;;11.42;76.30;99025.97;4968835;28;19968;-90
2023/01/19 07:35:32;;;;;;;;;;;;;;;;;;;;;
2023/01/19 07:38:10;;;;;;;;;;;;;;;11.70;74.58;99035.72;4969346;28;19928;-89
2023/01/19 07:40:42;;;;;;;;;;;;;;;11.47;75.05;99019.63;4969269;28;19945;-89
2023/01/19 07:43:19;;;;;;;;;;;;;;;11.63;75.62;99017.41;4983599;28;19929;-89
2023/01/19 07:46:02;;;;;;;;;;;;;;;11.61;75.91;99018.34;4968919;28;20076;-90
2023/01/19 07:48:33;;;;;;;;;;;;;;;11.62;76.47;99028.88;4968796;28;19933;-90
2023/01/19 07:51:16;;;;;;;;;;;;;;;12.07;76.61;99037.25;4984037;28;20388;-90
2023/01/19 07:53:57;;;;;;;;;;;;;;;12.22;73.92;99030.59;4967398;28;20829;-89
2023/01/19 07:56:33;;;;;;;;;;;;;;;12.53;73.60;99017.25;4968595;28;19926;-90
2023/01/19 07:59:05;;;;;;;;;;;;;;;12.46;74.60;99037.72;4969001;28;19988;-91
2023/01/19 08:01:33;;;;;;;;;;;;;;;12.71;73.77;99028.97;4983518;28;19933;-90
2023/01/19 08:04:08;;;;;;;;;;;;;;;12.84;72.70;99018.84;4967986;28;19973;-90
2023/01/19 08:06:41;;;;;;;;;;;;;;;13.20;72.28;99015.78;4968709;28;19977;-91
2023/01/19 08:09:18;;;;;;;;;;;;;;;13.63;71.10;99011.56;4983556;28;19926;-89
2023/01/19 08:11:57;;;;;;;;;;;;;;;13.88;68.76;99019.41;4967231;28;19929;-89
2023/01/19 08:14:27;;;;;;;;;;;;;;;14.35;67.75;99018.44;4983987;28;20303;-94
2023/01/19 08:16:58;;;;;;;;;;;;;;;14.58;66.74;99024.56;4967927;28;19922;-92
2023/01/19 08:19:44;;;;;;;;;;;;;;;;;;;;;
2023/01/19 08:22:20;;;;;;;;;;;;;;;14.94;64.34;99027.50;4967206;28;19922;-93
2023/01/19 08:24:51;;;;;;;;;;;;;;;14.82;66.77;99023.56;4984020;28;19925;-91
2023/01/19 08:27:25;;;;;;;;;;;;;;;15.13;65.35;99021.38;4968880;28;19929;-90
2023/01/19 08:30:07;;;;;;;;;;;;;;;15.17;64.92;99021.16;4967529;28;20443;-93
2023/01/19 08:32:43;;;;;;;;;;;;;;;15.01;63.90;99021.00;4969401;28;20041;-92
2023/01/19 08:35:14;;;;;;;;;;;;;;;15.00;66.25;99027.22;4969017;28;19922;-93
2023/01/19 08:37:48;;;;;;;;;;;;;;;15.11;63.64;99021.44;4968651;28;19925;-93
2023/01/19 08:40:28;;;;;;;;;;;;;;;;;;;;;
2023/01/19 08:43:09;;;;;;;;;;;;;;;;;;;;;
2023/01/19 08:45:42;;;;;;;;;;;;;;;15.19;63.92;99006.00;4968565;28;19918;-91
2023/01/19 08:48:09;;;;;;;;;;;;;;;15.58;61.33;99001.59;4968565;28;19929;-93
2023/01/19 08:50:46;;;;;;;;;;;;;;;15.90;59.32;99005.44;4968867;28;19973;-90
2023/01/19 08:53:21;;;;;;;;;;;;;;;15.92;61.18;99006.22;4950986;28;20037;-92
2023/01/19 08:56:01;;;;;;;;;;;;;;;15.96;59.91;98993.66;4968377;28;19929;-90
2023/01/19 08:58:45;;;;;;;;;;;;;;;16.09;60.54;98993.91;4971500;28;19929;-92
2023/01/19 09:01:19;;;;;;;;;;;;;;;16.25;61.05;98992.22;4987626;28;19987;-91
2023/01/19 09:03:53;;;;;;;;;;;;;;;16.31;61.49;98985.72;4987083;28;20068;-94
2023/01/19 09:06:24;;;;;;;;;;;;;;;16.13;62.51;98983.97;4988289;28;19976;-91
2023/01/19 09:08:57;;;;;;;;;;;;;;;15.92;64.49;98994.72;4974288;28;19973;-92
2023/01/19 09:11:36;;;;;;;;;;;;;;;16.20;64.40;98975.59;5002829;28;19922;-91
2023/01/19 09:14:12;;;;;;;;;;;;;;;16.36;62.43;98972.19;5000796;28;19925;-91
2023/01/19 09:16:45;;;;;;;;;;;;;;;16.36;62.42;98972.19;4999863;28;19930;-92
2023/01/19 09:19:21;;;;;;;;;;;;;;;16.63;57.21;98953.94;4998599;28;19950;-93
2023/01/19 09:21:52;;;;;;;;;;;;;;;16.68;57.67;98972.34;4999099;28;19918;-92
2023/01/19 09:24:26;;;;;;;;;;;;;;;17.03;57.56;98962.53;4992603;28;20454;-92
2023/01/19 09:26:59;;;;;;;;;;;;;;;17.28;56.93;98963.91;4971839;28;20465;-91
2023/01/19 09:29:52;;;;;;;;;;;;;;;;;;;;;
2023/01/19 09:32:21;;;;;;;;;;;;;;;17.84;53.81;98965.25;4971934;28;20392;-92
2023/01/19 09:35:00;;;;;;;;;;;;;;;18.10;47.76;98954.06;4972208;28;19922;-93
2023/01/19 09:37:31;;;;;;;;;;;;;;;18.10;43.23;98938.03;4969477;28;20384;-95
2023/01/19 09:40:14;;;;;;;;;;;;;;;18.22;42.43;98946.19;4970391;28;19945;-95
2023/01/19 09:42:51;;;;;;;;;;;;;;;18.50;39.30;98939.22;4971036;28;20020;-94
2023/01/19 09:45:36;;;;;;;;;;;;;;;18.85;40.14;98932.75;4970607;28;20659;-95
2023/01/19 09:48:37;;;;;;;;;;;;;;;18.85;40.30;98924.72;4972210;28;19922;-94
2023/01/19 09:51:11;;;;;;;;;;;;;;;19.21;36.65;98928.72;4970168;28;20392;-92
2023/01/19 09:53:43;;;;;;;;;;;;;;;19.29;37.39;98931.78;4986480;28;19918;-92
2023/01/19 09:56:14;;;;;;;;;;;;;;;19.47;37.79;98913.72;4971558;28;19945;-95
2023/01/19 09:58:40;;;;;;;;;;;;;;;19.52;39.60;98911.59;4970332;28;19918;-92
2023/01/19 10:01:27;;;;;;;;;;;;;;;19.83;35.96;98902.47;4970737;28;19929;-93
2023/01/19 10:04:08;;;;;;;;;;;;;;;20.06;35.72;98901.91;4963802;28;19970;-91
2023/01/19 10:06:41;;;;;;;;;;;;;;;20.20;35.90;98899.16;4970473;28;19997;-91
2023/01/19 10:09:27;;;;;;;;;;;;;;;20.19;37.41;98914.38;4970575;28;19973;-91
2023/01/19 10:12:01;;;;;;;;;;;;;;;20.09;35.72;98888.31;4974840;28;20013;-86
2023/01/19 10:14:46;;;;;;;;;;;;;;;19.82;36.55;98887.38;4981284;28;19925;-89
2023/01/19 10:17:36;;;;;;;;;;;;;;;20.22;36.39;98891.91;4990338;28;20426;-92
2023/01/19 10:20:06;;;;;;;;;;;;;;;20.66;35.79;98898.72;4974930;28;19933;-90
2023/01/19 10:22:34;;;;;;;;;;;;;;;20.93;36.77;98882.53;4972401;28;19926;-89
2023/01/19 10:25:05;;;;;;;;;;;;;;;20.75;33.89;98899.91;4971803;28;19989;-90
2023/01/19 10:27:36;;;;;;;;;;;;;;;20.69;34.09;98892.28;4972256;28;20528;-90
2023/01/19 10:30:09;;;;;;;;;;;;;;;20.66;32.05;98895.19;4968886;28;19933;-90
2023/01/19 10:32:44;;;;;;;;;;;;;;;20.49;31.72;98875.75;4970795;28;20387;-96
2023/01/19 10:35:20;;;;;;;;;;;;;;;20.72;32.23;98876.00;4984042;28;19925;-92
2023/01/19 10:37:56;;;;;;;;;;;;;;;20.86;32.92;98869.69;4980164;28;19922;-95
2023/01/19 10:40:34;;;;;;;;;;;;;;;20.85;31.61;98870.63;4985738;28;19941;-96
2023/01/19 10:43:25;;;;;;;;;;;;;;;20.81;33.26;98872.69;4979272;28;19918;-93
2023/01/19 10:45:54;;;;;;;;;;;;;;;20.84;31.74;98866.25;4988362;28;20016;-96
2023/01/19 10:48:27;;;;;;;;;;;;;;;21.05;32.32;98866.53;4969584;28;19918;-95
2023/01/19 10:51:16;;;;;;;;;;;;;;;21.14;34.38;98865.03;4968307;28;19929;-92
2023/01/19 10:53:52;;;;;;;;;;;;;;;21.18;32.87;98866.50;4969718;28;19926;-90
2023/01/19 10:56:29;;;;;;;;;;;;;;;20.92;32.07;98877.28;4969880;28;19918;-92
2023/01/19 10:59:05;;;;;;;;;;;;;;;20.98;32.30;98870.66;4969864;28;19941;-93
2023/01/19 11:01:44;;;;;;;;;;;;;;;20.98;30.00;98863.44;4969098;28;20376;-95
2023/01/19 11:04:24;;;;;;;;;;;;;;;20.91;32.00;98859.47;4969212;28;19932;-94
2023/01/19 11:07:12;;;;;;;;;;;;;;;20.58;30.55;98850.16;4968754;28;19922;-94
2023/01/19 11:09:38;;;;;;;;;;;;;;;20.77;31.02;98848.88;4968476;28;19922;-93
2023/01/19 11:12:25;;;;;;;;;;;;;;;;;;;;;
2023/01/19 11:14:58;;;;;;;;;;;;;;;20.55;32.59;98839.66;4969924;28;19928;-92
2023/01/19 11:17:27;;;;;;;;;;;;;;;20.79;31.23;98844.25;4968184;28;20391;-94
2023/01/19 11:20:02;;;;;;;;;;;;;;;20.54;30.57;98845.94;4967839;28;20400;-94
2023/01/19 11:22:44;;;;;;;;;;;;;;;20.70;31.30;98845.78;4969406;28;20415;-94
2023/01/19 11:25:21;;;;;;;;;;;;;;;20.51;29.77;98846.16;4969530;28;19929;-91
2023/01/19 11:28:03;;;;;;;;;;;;;;;20.47;28.79;98850.91;4969245;28;19976;-92
2023/01/19 11:30:35;;;;;;;;;;;;;;;20.85;29.84;98849.19;4967442;28;19968;-93
2023/01/19 11:33:14;;;;;;;;;;;;;;;;;;;;;
2023/01/19 11:35:51;;;;;;;;;;;;;;;20.29;33.63;98844.97;4968649;28;20410;-91
2023/01/19 11:38:26;;;;;;;;;;;;;;;19.92;34.30;98842.13;4969965;28;19922;-93
2023/01/19 11:41:05;;;;;;;;;;;;;;;19.68;36.03;98842.78;4968919;28;20488;-94
2023/01/19 11:43:37;;;;;;;;;;;;;;;19.89;35.79;98854.84;4968629;28;19973;-92
2023/01/19 11:46:13;;;;;;;;;;;;;;;20.06;35.03;98853.72;4969542;28;19922;-92
2023/01/19 11:48:45;;;;;;;;;;;;;;;20.23;35.81;98836.50;4967807;28;19973;-94
2023/01/19 11:51:22;;;;;;;;;;;;;;;20.29;36.17;98846.81;4969673;28;19918;-93
2023/01/19 11:53:50;;;;;;;;;;;;;;;20.46;35.48;98835.78;4969783;28;19922;-92
2023/01/19 11:56:24;;;;;;;;;;;;;;;20.43;33.99;98852.06;4970010;28;19918;-94
2023/01/19 11:58:51;;;;;;;;;;;;;;;20.39;34.67;98854.09;4969366;28;20423;-90
2023/01/19 12:01:33;;;;;;;;;;;;;;;20.07;36.57;98842.91;4969644;28;20005;-90
2023/01/19 12:04:10;;;;;;;;;;;;;;;19.92;34.87;98846.63;4969357;28;19970;-93
2023/01/19 12:06:55;;;;;;;;;;;;;;;20.02;35.90;98839.69;4968166;28;19980;-91
2023/01/19 12:09:47;;;;;;;;;;;;;;;;;;;;;
2023/01/19 12:12:34;;;;;;;;;;;;;;;19.89;36.73;98841.47;4968475;28;19933;-92
2023/01/19 12:15:16;;;;;;;;;;;;;;;19.90;37.17;98843.19;4969440;28;19981;-92
2023/01/19 12:17:52;;;;;;;;;;;;;;;19.82;36.62;98844.56;4967918;28;19929;-95
2023/01/19 12:20:29;;;;;;;;;;;;;;;19.96;36.73;98832.94;4969165;28;19938;-91
2023/01/19 12:23:08;;;;;;;;;;;;;;;20.21;34.39;98845.50;4968619;28;19922;-92
2023/01/19 12:26:02;;;;;;;;;;;;;;;20.27;33.25;98851.41;4959653;28;19922;-91
2023/01/19 12:28:48;;;;;;;;;;;;;;;;;;;;;
2023/01/19 12:31:21;;;;;;;;;;;;;;;20.25;36.52;98851.53;4972708;28;19925;-96
2023/01/19 12:33:57;;;;;;;;;;;;;;;19.94;33.64;98850.03;4990082;28;19924;-95
2023/01/19 12:36:32;;;;;;;;;;;;;;;19.94;33.31;98837.53;4989399;28;20009;-96
2023/01/19 12:39:10;;;;;;;;;;;;;;;19.87;34.07;98833.56;4990598;28;19929;-95
2023/01/19 12:41:55;;;;;;;;;;;;;;;19.54;33.86;98839.28;4991562;28;19940;-95
2023/01/19 12:44:26;;;;;;;;;;;;;;;19.43;33.02;98845.31;4990951;28;19918;-96
2023/01/19 12:47:05;;;;;;;;;;;;;;;19.22;33.14;98851.09;4987970;28;19953;-94
2023/01/19 12:49:49;;;;;;;;;;;;;;;19.07;33.46;98860.94;4971722;28;20307;-95
2023/01/19 12:52:29;;;;;;;;;;;;;;;19.15;32.58;98852.44;4972273;28;19922;-96
2023/01/19 12:55:07;;;;;;;;;;;;;;;19.08;32.88;98849.31;4972932;28;19922;-92
2023/01/19 12:57:50;;;;;;;;;;;;;;;19.07;32.70;98850.25;4973467;28;20017;-94
2023/01/19 13:00:38;;;;;;;;;;;;;;;19.00;32.72;98826.69;4972458;28;19918;-94
2023/01/19 13:03:30;;;;;;;;;;;;;;;18.99;32.92;98849.91;4972637;28;19926;-93
2023/01/19 13:06:04;;;;;;;;;;;;;;;19.13;32.65;98846.34;4986353;28;19933;-95
2023/01/19 13:08:55;;;;;;;;;;;;;;;19.42;33.70;98846.31;4990690;28;19943;-95
2023/01/19 13:11:22;;;;;;;;;;;;;;;19.14;33.04;98856.94;4992195;28;19921;-95
2023/01/19 13:14:06;;;;;;;;;;;;;;;;;;;;;
2023/01/19 13:16:36;;;;;;;;;;;;;;;19.37;34.44;98843.03;4992112;28;19925;-94
2023/01/19 13:19:26;;;;;;;;;;;;;;;19.35;36.20;98850.31;4990952;28;19996;-92
2023/01/19 13:21:55;;;;;;;;;;;;;;;19.37;34.34;98837.69;5003950;28;19941;-92
2023/01/19 13:24:47;;;;;;;;;;;;;;;19.55;34.04;98847.19;5030315;28;19993;-91
2023/01/19 13:27:32;;;;;;;;;;;;;;;;;;;;;
2023/01/19 13:29:59;;;;;;;;;;;;;;;19.61;30.87;98846.78;4982647;28;19918;-94
2023/01/19 13:32:29;;;;;;;;;;;;;;;19.93;31.51;98859.06;4972989;28;19922;-94
2023/01/19 13:35:08;;;;;;;;;;;;;;;19.76;34.54;98844.94;4971514;28;20403;-91
2023/01/19 13:37:44;;;;;;;;;;;;;;;19.61;33.41;98844.13;4987636;28;19922;-95
2023/01/19 13:40:50;;;;;;;;;;;;;;;;;;;;;
2023/01/19 13:43:26;;;;;;;;;;;;;;;19.91;35.31;98844.91;4971598;28;19922;-94
2023/01/19 13:46:04;;;;;;;;;;;;;;;19.82;35.35;98851.75;4972961;28;19926;-91
2023/01/19 13:48:36;;;;;;;;;;;;;;;19.38;34.76;98853.66;4974806;28;20000;-93
2023/01/19 13:51:25;;;;;;;;;;;;;;;19.30;33.86;98845.28;5002808;28;20141;-90
2023/01/19 13:54:25;;;;;;;;;;;;;;;19.55;34.20;98865.06;5000603;28;20305;-91
2023/01/19 13:56:59;;;;;;;;;;;;;;;19.45;35.28;98865.66;5000551;28;19906;-90
2023/01/19 13:59:40;;;;;;;;;;;;;;;19.21;35.60;98865.41;4997661;28;19926;-89
2023/01/19 14:02:13;;;;;;;;;;;;;;;19.19;36.50;98858.47;4996798;28;19922;-91
2023/01/19 14:04:47;;;;;;;;;;;;;;;19.19;37.17;98874.53;4974333;28;20400;-92
2023/01/19 14:07:25;;;;;;;;;;;;;;;19.22;37.45;98863.63;4969986;28;19918;-94
2023/01/19 14:10:10;;;;;;;;;;;;;;;19.13;35.80;98871.25;4973327;28;20655;-93